Wetterdaten: Woche 25.05.15 - 31.05.15 (KW22)
Datum Zeit Temp. A. Feuchte A. Luftdruck Regen Wind Richtung Taupunkt Windchill Windben
25.05.2015 00:00 12,4 C 84 % 1015,7 hPa 0,0 l/m 7,0 km/h N 9,8 C 12,0 C 17,3 km/h
25.05.2015 01:00 12,1 C 84 % 1015,3 hPa 0,0 l/m 6,8 km/h N 9,5 C 11,8 C 16,9 km/h
25.05.2015 02:00 12,0 C 84 % 1014,8 hPa 0,0 l/m 7,1 km/h N 9,3 C 11,5 C 18,9 km/h
25.05.2015 03:00 12,0 C 84 % 1014,5 hPa 0,0 l/m 5,4 km/h N 9,4 C 12,0 C 13,7 km/h
25.05.2015 04:00 12,0 C 84 % 1014,3 hPa 0,0 l/m 5,8 km/h N 9,4 C 12,0 C 17,3 km/h
25.05.2015 05:00 12,1 C 84 % 1014,1 hPa 0,0 l/m 8,0 km/h N 9,5 C 11,0 C 21,7 km/h
25.05.2015 06:00 12,4 C 84 % 1013,8 hPa 0,0 l/m 7,6 km/h N 9,7 C 11,5 C 19,3 km/h
25.05.2015 07:00 13,1 C 83 % 1013,7 hPa 0,0 l/m 9,0 km/h N 10,2 C 11,5 C 20,5 km/h
25.05.2015 08:00 14,0 C 81 % 1013,5 hPa 0,0 l/m 9,2 km/h N 10,6 C 12,4 C 20,5 km/h
25.05.2015 09:00 15,5 C 77 % 1013,0 hPa 0,0 l/m 11,9 km/h N 11,4 C 12,9 C 27,4 km/h
25.05.2015 10:00 16,3 C 75 % 1012,4 hPa 0,0 l/m 8,7 km/h N 11,7 C 15,1 C 23,3 km/h
25.05.2015 11:00 17,2 C 71 % 1012,0 hPa 0,0 l/m 10,6 km/h N 11,8 C 15,4 C 22,5 km/h
25.05.2015 12:00 18,6 C 64 % 1011,3 hPa 0,0 l/m 13,4 km/h N 11,6 C 16,0 C 29,8 km/h
25.05.2015 13:00 18,8 C 63 % 1011,0 hPa 0,0 l/m 10,3 km/h N 11,6 C 17,2 C 26,1 km/h
25.05.2015 14:00 18,6 C 69 % 1010,5 hPa 0,0 l/m 7,8 km/h N 12,8 C 18,0 C 18,9 km/h
25.05.2015 15:00 18,5 C 69 % 1010,1 hPa 0,0 l/m 7,2 km/h N 12,6 C 18,1 C 17,7 km/h
25.05.2015 16:00 18,5 C 70 % 1009,5 hPa 0,0 l/m 6,1 km/h N 12,8 C 18,4 C 16,9 km/h
25.05.2015 17:00 18,2 C 71 % 1009,0 hPa 0,0 l/m 6,6 km/h N 12,7 C 18,0 C 16,5 km/h
25.05.2015 18:00 17,9 C 70 % 1008,7 hPa 0,0 l/m 4,8 km/h N 12,4 C 17,8 C 14,9 km/h
25.05.2015 19:00 17,5 C 71 % 1008,6 hPa 0,0 l/m 4,4 km/h N 12,2 C 17,5 C 12,1 km/h
25.05.2015 20:00 17,0 C 70 % 1008,5 hPa 0,0 l/m 5,3 km/h N 11,5 C 16,8 C 16,9 km/h
25.05.2015 21:00 16,5 C 72 % 1008,9 hPa 0,0 l/m 4,7 km/h N 11,5 C 16,5 C 11,7 km/h
25.05.2015 22:00 16,0 C 75 % 1009,0 hPa 0,0 l/m 3,8 km/h N 11,5 C 16,0 C 10,5 km/h
25.05.2015 23:00 15,4 C 77 % 1008,7 hPa 0,0 l/m 2,6 km/h N 11,3 C 15,4 C 8,4 km/h
26.05.2015 00:00 15,1 C 77 % 1008,1 hPa 0,0 l/m 4,2 km/h N 11,1 C 15,1 C 10,5 km/h
26.05.2015 01:00 15,3 C 76 % 1007,8 hPa 0,0 l/m 5,2 km/h N 11,0 C 15,0 C 16,5 km/h
26.05.2015 02:00 15,6 C 72 % 1007,5 hPa 0,0 l/m 10,3 km/h N 10,6 C 13,7 C 24,9 km/h
26.05.2015 03:00 15,3 C 73 % 1007,5 hPa 0,0 l/m 11,5 km/h N 10,5 C 12,8 C 27,8 km/h
26.05.2015 04:00 15,0 C 74 % 1007,7 hPa 0,0 l/m 8,7 km/h N 10,4 C 13,7 C 21,3 km/h
26.05.2015 05:00 14,8 C 76 % 1008,1 hPa 0,0 l/m 9,4 km/h N 10,6 C 13,2 C 22,5 km/h
26.05.2015 06:00 14,4 C 78 % 1008,4 hPa 0,0 l/m 8,9 km/h N 10,6 C 13,0 C 22,5 km/h
26.05.2015 07:00 14,1 C 80 % 1008,3 hPa 0,0 l/m 11,3 km/h N 10,7 C 11,5 C 25,7 km/h
26.05.2015 08:00 14,8 C 79 % 1008,5 hPa 0,0 l/m 12,2 km/h N 11,2 C 12,0 C 28,2 km/h
26.05.2015 09:00 14,5 C 81 % 1009,2 hPa 0,0 l/m 8,3 km/h N 11,1 C 13,4 C 22,5 km/h
26.05.2015 10:00 14,2 C 82 % 1009,6 hPa 0,3 l/m 9,7 km/h N 11,2 C 12,4 C 24,1 km/h
26.05.2015 11:00 14,3 C 83 % 1010,0 hPa 0,3 l/m 8,9 km/h N 11,4 C 12,9 C 22,1 km/h
26.05.2015 12:00 14,4 C 84 % 1010,3 hPa 0,8 l/m 9,7 km/h N 11,6 C 12,6 C 24,1 km/h
26.05.2015 13:00 14,3 C 84 % 1010,7 hPa 1,3 l/m 7,5 km/h N 11,5 C 13,7 C 19,3 km/h
26.05.2015 14:00 14,2 C 84 % 1010,9 hPa 0,3 l/m 8,1 km/h N 11,5 C 13,2 C 20,9 km/h
26.05.2015 15:00 14,6 C 84 % 1011,0 hPa 0,0 l/m 9,6 km/h N 11,9 C 12,8 C 22,5 km/h
26.05.2015 16:00 14,8 C 83 % 1011,2 hPa 0,0 l/m 11,3 km/h N 11,9 C 12,4 C 24,9 km/h
26.05.2015 17:00 14,4 C 81 % 1011,8 hPa 0,0 l/m 9,9 km/h N 11,2 C 12,5 C 24,9 km/h
26.05.2015 18:00 13,6 C 80 % 1012,4 hPa 0,0 l/m 12,4 km/h N 10,2 C 10,5 C 26,5 km/h
26.05.2015 19:00 13,1 C 82 % 1013,0 hPa 0,0 l/m 9,9 km/h N 10,0 C 11,1 C 26,1 km/h
26.05.2015 20:00 12,7 C 82 % 1013,5 hPa 0,0 l/m 8,8 km/h N 9,8 C 11,2 C 22,9 km/h
26.05.2015 21:00 12,4 C 83 % 1014,7 hPa 0,3 l/m 6,8 km/h N 9,6 C 12,1 C 18,5 km/h
26.05.2015 22:00 12,1 C 82 % 1015,0 hPa 0,0 l/m 8,7 km/h N 9,1 C 10,6 C 20,9 km/h
26.05.2015 23:00 12,1 C 79 % 1015,2 hPa 0,0 l/m 8,4 km/h N 8,6 C 10,8 C 21,3 km/h
27.05.2015 00:00 12,1 C 75 % 1015,0 hPa 0,0 l/m 9,4 km/h N 7,9 C 10,3 C 22,5 km/h
27.05.2015 01:00 12,0 C 74 % 1015,2 hPa 0,0 l/m 9,4 km/h N 7,5 C 10,2 C 22,5 km/h
27.05.2015 02:00 11,5 C 74 % 1015,6 hPa 0,0 l/m 8,4 km/h N 7,1 C 10,2 C 21,7 km/h
27.05.2015 03:00 11,0 C 75 % 1015,9 hPa 0,0 l/m 9,6 km/h N 6,7 C 8,9 C 25,3 km/h
27.05.2015 04:00 10,5 C 74 % 1016,4 hPa 0,0 l/m 9,6 km/h N 6,1 C 8,4 C 24,5 km/h
27.05.2015 05:00 9,9 C 74 % 1016,8 hPa 0,0 l/m 9,0 km/h N 5,5 C 8,1 C 21,7 km/h
27.05.2015 06:00 10,1 C 72 % 1017,3 hPa 0,0 l/m 9,5 km/h N 5,3 C 8,0 C 23,7 km/h
27.05.2015 07:00 10,7 C 71 % 1017,5 hPa 0,0 l/m 11,3 km/h N 5,7 C 7,8 C 28,6 km/h
27.05.2015 08:00 12,1 C 69 % 1017,6 hPa 0,0 l/m 11,9 km/h N 6,6 C 9,0 C 27,0 km/h
27.05.2015 09:00 13,2 C 66 % 1017,5 hPa 0,0 l/m 13,7 km/h N 7,0 C 9,5 C 31,0 km/h
27.05.2015 10:00 13,8 C 64 % 1017,8 hPa 0,0 l/m 14,8 km/h N 7,0 C 9,8 C 31,8 km/h
27.05.2015 11:00 13,5 C 64 % 1017,9 hPa 0,0 l/m 12,6 km/h N 6,7 C 10,3 C 31,8 km/h
27.05.2015 12:00 12,7 C 64 % 1018,4 hPa 0,0 l/m 14,3 km/h N 6,0 C 8,7 C 30,6 km/h
27.05.2015 13:00 12,2 C 67 % 1018,7 hPa 0,0 l/m 12,0 km/h N 6,1 C 9,1 C 28,2 km/h
27.05.2015 14:00 13,4 C 64 % 1018,5 hPa 0,0 l/m 11,6 km/h N 6,6 C 10,6 C 26,9 km/h
27.05.2015 15:00 12,4 C 67 % 1018,4 hPa 0,0 l/m 10,2 km/h N 6,3 C 10,2 C 27,0 km/h
27.05.2015 16:00 13,4 C 62 % 1018,2 hPa 0,0 l/m 9,8 km/h N 6,2 C 11,6 C 24,5 km/h
27.05.2015 17:00 13,3 C 64 % 1018,2 hPa 0,0 l/m 8,3 km/h N 6,7 C 12,2 C 22,1 km/h
27.05.2015 18:00 13,9 C 59 % 1018,2 hPa 0,0 l/m 11,4 km/h N 6,1 C 11,3 C 29,0 km/h
27.05.2015 19:00 13,4 C 59 % 1018,3 hPa 0,0 l/m 9,0 km/h N 5,4 C 11,9 C 22,1 km/h
27.05.2015 20:00 12,5 C 59 % 1018,6 hPa 0,0 l/m 8,5 km/h N 4,6 C 11,3 C 20,5 km/h
27.05.2015 21:00 11,5 C 61 % 1019,4 hPa 0,0 l/m 6,2 km/h N 4,2 C 11,5 C 16,5 km/h
27.05.2015 22:00 10,9 C 62 % 1019,9 hPa 0,0 l/m 5,4 km/h N 4,0 C 10,9 C 16,1 km/h
27.05.2015 23:00 10,2 C 66 % 1019,9 hPa 0,0 l/m 2,8 km/h N 4,1 C 10,2 C 8,9 km/h
28.05.2015 00:00 10,1 C 66 % 1019,9 hPa 0,0 l/m 2,9 km/h N 4,1 C 10,1 C 10,9 km/h
28.05.2015 01:00 9,7 C 68 % 1019,8 hPa 0,0 l/m 1,8 km/h N 4,0 C 9,7 C 8,4 km/h
28.05.2015 02:00 9,4 C 69 % 1019,7 hPa 0,0 l/m 1,8 km/h N 4,1 C 9,4 C 8,4 km/h
28.05.2015 03:00 9,9 C 69 % 1019,4 hPa 0,0 l/m 2,6 km/h N 4,5 C 9,9 C 10,9 km/h
28.05.2015 04:00 10,1 C 69 % 1019,2 hPa 0,0 l/m 3,0 km/h N 4,7 C 10,1 C 10,5 km/h
28.05.2015 05:00 10,2 C 69 % 1019,2 hPa 0,0 l/m 2,1 km/h N 4,8 C 10,2 C 12,9 km/h
28.05.2015 06:00 10,3 C 69 % 1019,4 hPa 0,0 l/m 2,9 km/h N 4,9 C 10,3 C 12,1 km/h
28.05.2015 07:00 10,6 C 70 % 1019,7 hPa 0,0 l/m 3,4 km/h N 5,4 C 10,6 C 12,1 km/h
28.05.2015 08:00 11,4 C 69 % 1020,1 hPa 0,0 l/m 5,1 km/h N 6,0 C 11,4 C 14,9 km/h
28.05.2015 09:00 12,1 C 67 % 1020,1 hPa 0,0 l/m 6,1 km/h N 6,2 C 12,1 C 15,3 km/h
28.05.2015 10:00 13,5 C 62 % 1019,7 hPa 0,0 l/m 5,6 km/h N 6,3 C 13,3 C 18,1 km/h
28.05.2015 11:00 13,8 C 55 % 1019,3 hPa 0,0 l/m 5,8 km/h N 4,9 C 13,8 C 16,5 km/h
28.05.2015 12:00 14,8 C 54 % 1018,9 hPa 0,0 l/m 7,6 km/h N 5,6 C 14,2 C 19,7 km/h
28.05.2015 13:00 15,6 C 53 % 1018,2 hPa 0,0 l/m 5,8 km/h N 6,0 C 15,4 C 17,7 km/h
28.05.2015 14:00 16,7 C 52 % 1017,5 hPa 0,0 l/m 5,4 km/h N 6,7 C 16,6 C 17,7 km/h
28.05.2015 15:00 17,4 C 50 % 1016,8 hPa 0,0 l/m 5,2 km/h N 6,8 C 17,3 C 14,9 km/h
28.05.2015 16:00 17,9 C 49 % 1016,3 hPa 0,0 l/m 2,3 km/h N 7,1 C 17,9 C 9,2 km/h
28.05.2015 17:00 18,4 C 50 % 1015,7 hPa 0,0 l/m 1,1 km/h N 7,8 C 18,4 C 8,4 km/h
28.05.2015 18:00 17,7 C 52 % 1015,6 hPa 0,0 l/m 1,7 km/h N 7,7 C 17,7 C 9,3 km/h
28.05.2015 19:00 16,9 C 53 % 1015,5 hPa 0,0 l/m 2,2 km/h N 7,3 C 16,9 C 10,9 km/h
28.05.2015 20:00 15,2 C 59 % 1015,5 hPa 0,0 l/m 0,9 km/h N 7,1 C 15,2 C 7,2 km/h
28.05.2015 21:00 13,6 C 63 % 1015,6 hPa 0,0 l/m 0,1 km/h N 6,7 C 13,6 C 2,0 km/h
28.05.2015 22:00 11,1 C 71 % 1015,7 hPa 0,0 l/m 0,0 km/h N 6,1 C 11,1 C 0,0 km/h
28.05.2015 23:00 9,2 C 79 % 1015,6 hPa 0,0 l/m 0,0 km/h N 5,7 C 9,2 C 0,0 km/h
29.05.2015 00:00 8,1 C 82 % 1015,6 hPa 0,0 l/m 0,0 km/h N 5,3 C 8,1 C 0,4 km/h
29.05.2015 01:00 7,8 C 84 % 1015,4 hPa 0,0 l/m 0,1 km/h N 5,3 C 7,8 C 2,4 km/h
29.05.2015 02:00 7,7 C 85 % 1015,3 hPa 0,0 l/m 0,2 km/h N 5,3 C 7,7 C 3,2 km/h
29.05.2015 03:00 7,0 C 85 % 1015,1 hPa 0,0 l/m 0,0 km/h N 4,6 C 7,0 C 0,4 km/h
29.05.2015 04:00 6,3 C 85 % 1015,0 hPa 0,0 l/m 0,0 km/h N 4,0 C 6,3 C 0,0 km/h
29.05.2015 05:00 6,2 C 84 % 1015,2 hPa 0,0 l/m 0,0 km/h N 3,7 C 6,2 C 0,0 km/h
29.05.2015 06:00 7,1 C 83 % 1015,3 hPa 0,0 l/m 0,0 km/h N 4,3 C 7,1 C 0,4 km/h
29.05.2015 07:00 9,4 C 82 % 1015,4 hPa 0,0 l/m 0,2 km/h N 6,5 C 9,4 C 2,8 km/h
29.05.2015 08:00 12,4 C 82 % 1015,5 hPa 0,0 l/m 0,2 km/h N 9,5 C 12,4 C 2,8 km/h
29.05.2015 09:00 16,7 C 71 % 1015,2 hPa 0,0 l/m 0,6 km/h N 11,4 C 16,7 C 5,6 km/h
29.05.2015 10:00 18,7 C 66 % 1015,0 hPa 0,0 l/m 1,3 km/h N 12,1 C 18,7 C 7,6 km/h
29.05.2015 11:00 21,7 C 63 % 1014,3 hPa 0,0 l/m 0,9 km/h N 14,2 C 21,7 C 7,2 km/h
29.05.2015 12:00 23,0 C 51 % 1013,8 hPa 0,0 l/m 1,3 km/h N 12,3 C 23,0 C 8,4 km/h
29.05.2015 13:00 23,9 C 50 % 1013,2 hPa 0,0 l/m 1,8 km/h N 12,7 C 23,9 C 11,3 km/h
29.05.2015 14:00 24,5 C 46 % 1012,8 hPa 0,0 l/m 3,2 km/h N 12,0 C 24,5 C 12,1 km/h
29.05.2015 15:00 23,3 C 48 % 1012,3 hPa 0,0 l/m 5,6 km/h N 11,7 C 23,2 C 17,3 km/h
29.05.2015 16:00 23,1 C 49 % 1011,8 hPa 0,0 l/m 6,4 km/h N 11,7 C 22,9 C 19,3 km/h
29.05.2015 17:00 23,0 C 49 % 1011,3 hPa 0,0 l/m 5,9 km/h N 11,5 C 23,0 C 17,7 km/h
29.05.2015 18:00 22,6 C 50 % 1010,7 hPa 0,0 l/m 5,8 km/h N 11,6 C 22,5 C 17,7 km/h
29.05.2015 19:00 22,1 C 53 % 1010,3 hPa 0,0 l/m 4,1 km/h N 12,1 C 22,1 C 15,3 km/h
29.05.2015 20:00 21,0 C 55 % 1010,1 hPa 0,0 l/m 3,8 km/h N 11,6 C 21,0 C 15,7 km/h
29.05.2015 21:00 19,6 C 58 % 1010,0 hPa 0,0 l/m 3,0 km/h N 11,1 C 19,6 C 11,3 km/h
29.05.2015 22:00 18,1 C 62 % 1009,8 hPa 0,0 l/m 1,2 km/h N 10,6 C 18,1 C 8,1 km/h
29.05.2015 23:00 16,8 C 66 % 1009,9 hPa 0,0 l/m 0,3 km/h N 10,3 C 16,8 C 3,2 km/h
30.05.2015 00:00 15,0 C 73 % 1009,6 hPa 0,0 l/m 0,0 km/h N 10,1 C 15,0 C 0,8 km/h
30.05.2015 01:00 12,9 C 80 % 1009,9 hPa 0,0 l/m 0,6 km/h N 9,5 C 12,9 C 3,2 km/h
30.05.2015 02:00 12,6 C 82 % 1010,2 hPa 0,0 l/m 0,2 km/h N 9,5 C 12,6 C 2,4 km/h
30.05.2015 03:00 13,1 C 82 % 1010,8 hPa 0,0 l/m 1,2 km/h N 10,0 C 13,1 C 7,2 km/h
30.05.2015 04:00 13,9 C 80 % 1011,2 hPa 0,0 l/m 0,0 km/h N 10,5 C 13,9 C 0,8 km/h
30.05.2015 05:00 14,5 C 78 % 1011,5 hPa 0,0 l/m 0,8 km/h N 10,7 C 14,5 C 3,2 km/h
30.05.2015 06:00 13,8 C 80 % 1012,0 hPa 0,0 l/m 0,1 km/h N 10,5 C 13,8 C 0,8 km/h
30.05.2015 07:00 14,8 C 82 % 1012,0 hPa 0,0 l/m 0,0 km/h N 11,8 C 14,8 C 0,4 km/h
30.05.2015 08:00 18,4 C 72 % 1012,3 hPa 0,0 l/m 1,0 km/h N 13,1 C 18,4 C 5,6 km/h
30.05.2015 09:00 21,5 C 61 % 1012,6 hPa 0,0 l/m 0,5 km/h N 13,6 C 21,5 C 4,8 km/h
30.05.2015 10:00 21,1 C 59 % 1013,0 hPa 0,0 l/m 4,2 km/h N 12,8 C 21,1 C 13,3 km/h
30.05.2015 11:00 21,1 C 62 % 1013,2 hPa 0,0 l/m 4,2 km/h N 13,5 C 21,1 C 12,5 km/h
30.05.2015 12:00 21,9 C 57 % 1013,1 hPa 0,0 l/m 4,9 km/h N 13,0 C 21,9 C 15,3 km/h
30.05.2015 13:00 23,5 C 54 % 1012,8 hPa 0,0 l/m 5,9 km/h N 13,5 C 23,5 C 18,9 km/h
30.05.2015 14:00 24,1 C 48 % 1012,7 hPa 0,0 l/m 4,3 km/h N 12,4 C 24,1 C 18,9 km/h
30.05.2015 15:00 23,6 C 48 % 1012,5 hPa 0,0 l/m 4,3 km/h N 11,9 C 23,6 C 18,5 km/h
30.05.2015 16:00 23,7 C 48 % 1012,1 hPa 0,0 l/m 3,3 km/h N 12,1 C 23,7 C 14,5 km/h
30.05.2015 17:00 22,8 C 49 % 1012,9 hPa 0,0 l/m 3,8 km/h N 11,6 C 22,8 C 18,5 km/h
30.05.2015 18:00 21,0 C 55 % 1013,9 hPa 0,0 l/m 1,2 km/h N 11,5 C 21,0 C 11,3 km/h
30.05.2015 19:00 19,7 C 63 % 1014,4 hPa 0,0 l/m 0,7 km/h N 12,3 C 19,7 C 4,0 km/h
30.05.2015 20:00 18,6 C 69 % 1014,9 hPa 0,0 l/m 0,6 km/h N 12,7 C 18,6 C 4,4 km/h
30.05.2015 21:00 17,7 C 76 % 1015,5 hPa 0,5 l/m 0,1 km/h N 13,5 C 17,7 C 2,0 km/h
30.05.2015 22:00 16,5 C 82 % 1016,0 hPa 0,3 l/m 0,0 km/h N 13,3 C 16,5 C 0,8 km/h
30.05.2015 23:00 15,6 C 83 % 1016,5 hPa 0,0 l/m 0,1 km/h N 12,8 C 15,6 C 1,6 km/h
31.05.2015 00:00 15,2 C 83 % 1016,9 hPa 0,0 l/m 0,7 km/h N 12,4 C 15,2 C 6,0 km/h
31.05.2015 01:00 15,1 C 82 % 1017,3 hPa 0,0 l/m 0,0 km/h N 12,0 C 15,1 C 0,0 km/h
31.05.2015 02:00 13,8 C 83 % 1017,4 hPa 0,0 l/m 0,0 km/h N 10,9 C 13,8 C 0,0 km/h
31.05.2015 03:00 13,0 C 83 % 1017,4 hPa 0,0 l/m 0,1 km/h N 10,1 C 13,0 C 2,0 km/h
31.05.2015 04:00 12,6 C 82 % 1017,8 hPa 0,0 l/m 0,1 km/h N 9,6 C 12,6 C 2,8 km/h
31.05.2015 05:00 12,7 C 82 % 1018,1 hPa 0,0 l/m 0,0 km/h N 9,7 C 12,7 C 0,0 km/h
31.05.2015 06:00 12,9 C 82 % 1018,4 hPa 0,0 l/m 0,0 km/h N 9,9 C 12,9 C 0,0 km/h
31.05.2015 07:00 13,8 C 83 % 1018,8 hPa 0,0 l/m 0,0 km/h N 10,9 C 13,8 C 0,0 km/h
31.05.2015 08:00 15,8 C 71 % 1019,0 hPa 0,0 l/m 1,7 km/h N 10,4 C 15,8 C 6,4 km/h
31.05.2015 09:00 17,7 C 62 % 1019,0 hPa 0,0 l/m 1,6 km/h N 10,4 C 17,7 C 6,8 km/h
31.05.2015 10:00 20,1 C 59 % 1018,7 hPa 0,0 l/m 1,0 km/h N 11,8 C 20,1 C 6,8 km/h
31.05.2015 11:00 21,1 C 59 % 1018,5 hPa 0,0 l/m 1,5 km/h N 12,6 C 21,1 C 6,8 km/h
31.05.2015 12:00 21,7 C 57 % 1018,0 hPa 0,0 l/m 2,3 km/h N 12,8 C 21,7 C 11,3 km/h
31.05.2015 13:00 22,9 C 52 % 1017,5 hPa 0,0 l/m 1,7 km/h N 12,4 C 22,9 C 9,3 km/h
31.05.2015 14:00 23,7 C 54 % 1017,1 hPa 0,0 l/m 3,0 km/h N 13,8 C 23,7 C 14,1 km/h
31.05.2015 15:00 22,8 C 57 % 1016,4 hPa 0,0 l/m 2,4 km/h N 13,7 C 22,8 C 14,9 km/h
31.05.2015 16:00 23,0 C 55 % 1015,8 hPa 0,0 l/m 4,0 km/h N 13,5 C 23,0 C 15,3 km/h
31.05.2015 17:00 23,1 C 54 % 1015,3 hPa 0,0 l/m 5,9 km/h N 13,2 C 23,1 C 17,7 km/h
31.05.2015 18:00 23,0 C 53 % 1015,0 hPa 0,0 l/m 5,6 km/h N 13,0 C 23,0 C 17,7 km/h
31.05.2015 19:00 22,1 C 55 % 1014,9 hPa 0,0 l/m 4,1 km/h N 12,6 C 22,1 C 15,7 km/h
31.05.2015 20:00 20,5 C 60 % 1014,6 hPa 0,0 l/m 2,0 km/h N 12,3 C 20,5 C 10,5 km/h
31.05.2015 21:00 18,8 C 66 % 1014,9 hPa 0,0 l/m 0,5 km/h N 12,2 C 18,8 C 3,6 km/h
31.05.2015 22:00 17,5 C 72 % 1015,1 hPa 0,0 l/m 0,8 km/h N 12,3 C 17,5 C 6,4 km/h
31.05.2015 23:00 16,5 C 76 % 1014,8 hPa 0,0 l/m 0,2 km/h N 12,2 C 16,5 C 3,2 km/h
Min-Datum _ 29.05.15 30.05.15 26.05.15 - 28.05.15 - 29.05.15 29.05.15 28.05.15
_ Min-Zeit 05:15 14:45 02:45 - 21:15 - 05:00 04:45 21:30
Minimum _ 6,1 C 44 % 1007,3 hPa - 0,0 km/h - 3,7 C 6,2 C 0,0 km/h
Max-Datum _ 29.05.15 29.05.15 28.05.15 26.05.15 27.05.15 - 31.05.15 29.05.15 27.05.15
_ Max-Zeit 14:30 02:15 08:45 13:00 12:30 - 16:15 14:15 10:00
Maximum _ 24,9 C 85 % 1020,2 hPa 1,3 l/m 16,4 km/h
N
- 14,5 C 24,8 C 35,4 km/h
N
Durchschnitt _ 15,4 C 69 % 1014,4 hPa #3,9 l/m 5,0 km/h N 9,6 C 14,8 C 14,2 km/h